sensor_id;sensor_type;location;lat;lon;timestamp;P1;durP1;ratioP1;P2;durP2;ratioP2
22826;SDS011;11580;52.562;13.418;2023-06-14T00:02:20;3.03;;;2.33;;
22826;SDS011;11580;52.562;13.418;2023-06-14T00:04:47;3.03;;;2.73;;
22826;SDS011;11580;52.562;13.418;2023-06-14T00:07:17;2.97;;;2.33;;
22826;SDS011;11580;52.562;13.418;2023-06-14T00:09:49;3.10;;;2.80;;
22826;SDS011;11580;52.562;13.418;2023-06-14T00:12:16;3.90;;;3.50;;
22826;SDS011;11580;52.562;13.418;2023-06-14T00:14:43;3.10;;;2.90;;
22826;SDS011;11580;52.562;13.418;2023-06-14T00:17:10;2.97;;;2.77;;
22826;SDS011;11580;52.562;13.418;2023-06-14T00:19:38;2.90;;;2.70;;
22826;SDS011;11580;52.562;13.418;2023-06-14T00:22:05;3.00;;;2.80;;
22826;SDS011;11580;52.562;13.418;2023-06-14T00:24:34;3.27;;;2.97;;
22826;SDS011;11580;52.562;13.418;2023-06-14T00:27:01;3.00;;;2.70;;
22826;SDS011;11580;52.562;13.418;2023-06-14T00:29:28;3.37;;;3.07;;
22826;SDS011;11580;52.562;13.418;2023-06-14T00:31:55;4.00;;;2.73;;
22826;SDS011;11580;52.562;13.418;2023-06-14T00:34:25;3.50;;;3.20;;
22826;SDS011;11580;52.562;13.418;2023-06-14T00:36:52;2.63;;;2.50;;
22826;SDS011;11580;52.562;13.418;2023-06-14T00:39:20;3.07;;;2.87;;
22826;SDS011;11580;52.562;13.418;2023-06-14T00:41:48;3.53;;;3.23;;
22826;SDS011;11580;52.562;13.418;2023-06-14T00:44:16;3.13;;;2.83;;
22826;SDS011;11580;52.562;13.418;2023-06-14T00:46:44;3.13;;;2.93;;
22826;SDS011;11580;52.562;13.418;2023-06-14T00:49:12;3.57;;;3.27;;
22826;SDS011;11580;52.562;13.418;2023-06-14T00:51:42;3.40;;;3.20;;
22826;SDS011;11580;52.562;13.418;2023-06-14T00:54:09;4.17;;;3.37;;
22826;SDS011;11580;52.562;13.418;2023-06-14T00:56:36;3.07;;;2.77;;
22826;SDS011;11580;52.562;13.418;2023-06-14T00:59:06;3.23;;;3.03;;
22826;SDS011;11580;52.562;13.418;2023-06-14T01:01:34;3.20;;;3.00;;
22826;SDS011;11580;52.562;13.418;2023-06-14T01:04:02;3.37;;;3.17;;
22826;SDS011;11580;52.562;13.418;2023-06-14T01:06:31;6.10;;;5.50;;
22826;SDS011;11580;52.562;13.418;2023-06-14T01:09:10;3.60;;;3.30;;
22826;SDS011;11580;52.562;13.418;2023-06-14T01:11:50;3.97;;;3.07;;
22826;SDS011;11580;52.562;13.418;2023-06-14T01:14:28;3.33;;;3.13;;
22826;SDS011;11580;52.562;13.418;2023-06-14T01:16:57;3.20;;;3.00;;
22826;SDS011;11580;52.562;13.418;2023-06-14T01:19:25;4.00;;;3.30;;
22826;SDS011;11580;52.562;13.418;2023-06-14T01:21:53;3.57;;;3.30;;
22826;SDS011;11580;52.562;13.418;2023-06-14T01:24:23;3.70;;;3.40;;
22826;SDS011;11580;52.562;13.418;2023-06-14T01:26:57;3.60;;;3.40;;
22826;SDS011;11580;52.562;13.418;2023-06-14T01:29:27;4.07;;;3.60;;
22826;SDS011;11580;52.562;13.418;2023-06-14T01:31:57;3.80;;;3.40;;
22826;SDS011;11580;52.562;13.418;2023-06-14T01:34:29;3.50;;;3.20;;
22826;SDS011;11580;52.562;13.418;2023-06-14T01:36:57;4.03;;;3.73;;
22826;SDS011;11580;52.562;13.418;2023-06-14T01:39:29;5.17;;;4.63;;
22826;SDS011;11580;52.562;13.418;2023-06-14T01:41:58;3.83;;;3.47;;
22826;SDS011;11580;52.562;13.418;2023-06-14T01:44:26;4.47;;;4.07;;
22826;SDS011;11580;52.562;13.418;2023-06-14T01:46:55;4.33;;;3.73;;
22826;SDS011;11580;52.562;13.418;2023-06-14T01:49:23;4.03;;;3.73;;
22826;SDS011;11580;52.562;13.418;2023-06-14T01:51:52;4.00;;;3.70;;
22826;SDS011;11580;52.562;13.418;2023-06-14T01:54:19;3.70;;;3.50;;
22826;SDS011;11580;52.562;13.418;2023-06-14T01:56:48;3.50;;;3.20;;
22826;SDS011;11580;52.562;13.418;2023-06-14T01:59:15;4.10;;;3.67;;
22826;SDS011;11580;52.562;13.418;2023-06-14T02:01:42;3.83;;;3.53;;
22826;SDS011;11580;52.562;13.418;2023-06-14T02:04:11;4.23;;;3.83;;
22826;SDS011;11580;52.562;13.418;2023-06-14T02:06:38;4.20;;;3.90;;
22826;SDS011;11580;52.562;13.418;2023-06-14T02:09:05;4.20;;;3.90;;
22826;SDS011;11580;52.562;13.418;2023-06-14T02:11:33;3.90;;;3.67;;
22826;SDS011;11580;52.562;13.418;2023-06-14T02:14:01;4.47;;;4.07;;
22826;SDS011;11580;52.562;13.418;2023-06-14T02:16:28;4.77;;;3.83;;
22826;SDS011;11580;52.562;13.418;2023-06-14T02:18:56;4.00;;;3.60;;
22826;SDS011;11580;52.562;13.418;2023-06-14T02:21:23;6.43;;;4.70;;
22826;SDS011;11580;52.562;13.418;2023-06-14T02:23:50;4.40;;;4.10;;
22826;SDS011;11580;52.562;13.418;2023-06-14T02:26:17;4.50;;;4.10;;
22826;SDS011;11580;52.562;13.418;2023-06-14T02:28:44;4.17;;;3.87;;
22826;SDS011;11580;52.562;13.418;2023-06-14T02:31:13;5.77;;;4.40;;
22826;SDS011;11580;52.562;13.418;2023-06-14T02:33:41;4.60;;;4.23;;
22826;SDS011;11580;52.562;13.418;2023-06-14T02:36:08;4.60;;;4.23;;
22826;SDS011;11580;52.562;13.418;2023-06-14T02:38:35;4.63;;;4.33;;
22826;SDS011;11580;52.562;13.418;2023-06-14T02:41:02;4.50;;;4.20;;
22826;SDS011;11580;52.562;13.418;2023-06-14T02:43:31;5.27;;;4.87;;
22826;SDS011;11580;52.562;13.418;2023-06-14T02:45:58;4.37;;;4.07;;
22826;SDS011;11580;52.562;13.418;2023-06-14T02:48:27;4.60;;;4.30;;
22826;SDS011;11580;52.562;13.418;2023-06-14T02:50:54;4.70;;;4.30;;
22826;SDS011;11580;52.562;13.418;2023-06-14T02:53:22;4.43;;;4.10;;
22826;SDS011;11580;52.562;13.418;2023-06-14T02:55:49;4.57;;;4.17;;
22826;SDS011;11580;52.562;13.418;2023-06-14T02:58:17;4.63;;;4.33;;
22826;SDS011;11580;52.562;13.418;2023-06-14T03:00:44;5.17;;;4.77;;
22826;SDS011;11580;52.562;13.418;2023-06-14T03:03:12;4.97;;;4.60;;
22826;SDS011;11580;52.562;13.418;2023-06-14T03:05:48;4.90;;;4.60;;
22826;SDS011;11580;52.562;13.418;2023-06-14T03:08:21;4.23;;;3.93;;
22826;SDS011;11580;52.562;13.418;2023-06-14T03:10:52;4.37;;;4.00;;
22826;SDS011;11580;52.562;13.418;2023-06-14T03:13:21;5.33;;;4.93;;
22826;SDS011;11580;52.562;13.418;2023-06-14T03:15:51;5.40;;;4.97;;
22826;SDS011;11580;52.562;13.418;2023-06-14T03:18:19;5.13;;;4.73;;
22826;SDS011;11580;52.562;13.418;2023-06-14T03:20:51;5.50;;;5.00;;
22826;SDS011;11580;52.562;13.418;2023-06-14T03:23:19;5.33;;;4.57;;
22826;SDS011;11580;52.562;13.418;2023-06-14T03:25:46;5.40;;;4.90;;
22826;SDS011;11580;52.562;13.418;2023-06-14T03:28:14;5.50;;;4.97;;
22826;SDS011;11580;52.562;13.418;2023-06-14T03:30:42;5.00;;;4.60;;
22826;SDS011;11580;52.562;13.418;2023-06-14T03:33:09;5.27;;;4.87;;
22826;SDS011;11580;52.562;13.418;2023-06-14T03:35:39;5.30;;;4.90;;
22826;SDS011;11580;52.562;13.418;2023-06-14T03:38:08;5.13;;;4.73;;
22826;SDS011;11580;52.562;13.418;2023-06-14T03:40:35;6.70;;;6.10;;
22826;SDS011;11580;52.562;13.418;2023-06-14T03:43:05;5.60;;;5.20;;
22826;SDS011;11580;52.562;13.418;2023-06-14T03:45:32;5.13;;;4.73;;
22826;SDS011;11580;52.562;13.418;2023-06-14T03:47:59;5.20;;;4.80;;
22826;SDS011;11580;52.562;13.418;2023-06-14T03:50:29;5.60;;;5.10;;
22826;SDS011;11580;52.562;13.418;2023-06-14T03:52:57;5.00;;;4.60;;
22826;SDS011;11580;52.562;13.418;2023-06-14T03:55:28;5.57;;;5.07;;
22826;SDS011;11580;52.562;13.418;2023-06-14T03:57:57;5.73;;;5.33;;
22826;SDS011;11580;52.562;13.418;2023-06-14T04:00:24;5.00;;;4.70;;
22826;SDS011;11580;52.562;13.418;2023-06-14T04:02:52;4.70;;;4.40;;
22826;SDS011;11580;52.562;13.418;2023-06-14T04:05:19;6.67;;;6.03;;
22826;SDS011;11580;52.562;13.418;2023-06-14T04:07:49;5.40;;;5.00;;
22826;SDS011;11580;52.562;13.418;2023-06-14T04:10:16;5.10;;;4.80;;
22826;SDS011;11580;52.562;13.418;2023-06-14T04:12:46;5.57;;;5.07;;
22826;SDS011;11580;52.562;13.418;2023-06-14T04:15:13;6.27;;;5.20;;
22826;SDS011;11580;52.562;13.418;2023-06-14T04:17:41;5.30;;;4.83;;
22826;SDS011;11580;52.562;13.418;2023-06-14T04:20:08;4.90;;;4.53;;
22826;SDS011;11580;52.562;13.418;2023-06-14T04:22:36;4.63;;;4.33;;
22826;SDS011;11580;52.562;13.418;2023-06-14T04:25:05;5.93;;;5.37;;
22826;SDS011;11580;52.562;13.418;2023-06-14T04:27:33;5.20;;;4.90;;
22826;SDS011;11580;52.562;13.418;2023-06-14T04:30:03;5.93;;;5.53;;
22826;SDS011;11580;52.562;13.418;2023-06-14T04:32:36;7.60;;;5.13;;
22826;SDS011;11580;52.562;13.418;2023-06-14T04:35:06;4.97;;;4.67;;
22826;SDS011;11580;52.562;13.418;2023-06-14T04:37:37;5.40;;;5.00;;
22826;SDS011;11580;52.562;13.418;2023-06-14T04:40:09;5.23;;;4.83;;
22826;SDS011;11580;52.562;13.418;2023-06-14T04:42:38;5.53;;;5.13;;
22826;SDS011;11580;52.562;13.418;2023-06-14T04:45:09;5.40;;;4.90;;
22826;SDS011;11580;52.562;13.418;2023-06-14T04:47:37;6.10;;;5.50;;
22826;SDS011;11580;52.562;13.418;2023-06-14T04:50:06;5.70;;;5.30;;
22826;SDS011;11580;52.562;13.418;2023-06-14T04:52:34;5.50;;;5.10;;
22826;SDS011;11580;52.562;13.418;2023-06-14T04:55:04;4.90;;;4.50;;
22826;SDS011;11580;52.562;13.418;2023-06-14T04:57:32;5.13;;;4.73;;
22826;SDS011;11580;52.562;13.418;2023-06-14T05:00:00;4.70;;;4.30;;
22826;SDS011;11580;52.562;13.418;2023-06-14T05:02:32;5.90;;;5.50;;
22826;SDS011;11580;52.562;13.418;2023-06-14T05:05:00;24.63;;;8.17;;
22826;SDS011;11580;52.562;13.418;2023-06-14T05:07:28;5.23;;;4.83;;
22826;SDS011;11580;52.562;13.418;2023-06-14T05:09:56;5.37;;;5.07;;
22826;SDS011;11580;52.562;13.418;2023-06-14T05:12:24;6.30;;;5.73;;
22826;SDS011;11580;52.562;13.418;2023-06-14T05:14:52;5.50;;;5.10;;
22826;SDS011;11580;52.562;13.418;2023-06-14T05:17:20;6.20;;;5.73;;
22826;SDS011;11580;52.562;13.418;2023-06-14T05:19:49;5.50;;;5.10;;
22826;SDS011;11580;52.562;13.418;2023-06-14T05:22:16;6.13;;;5.73;;
22826;SDS011;11580;52.562;13.418;2023-06-14T05:24:43;6.00;;;5.60;;
22826;SDS011;11580;52.562;13.418;2023-06-14T05:27:13;6.20;;;5.70;;
22826;SDS011;11580;52.562;13.418;2023-06-14T05:29:40;5.77;;;5.37;;
22826;SDS011;11580;52.562;13.418;2023-06-14T05:32:07;6.17;;;5.63;;
22826;SDS011;11580;52.562;13.418;2023-06-14T05:34:35;5.40;;;5.10;;
22826;SDS011;11580;52.562;13.418;2023-06-14T05:37:03;14.20;;;8.10;;
22826;SDS011;11580;52.562;13.418;2023-06-14T05:39:31;9.10;;;5.87;;
22826;SDS011;11580;52.562;13.418;2023-06-14T05:41:58;5.87;;;5.47;;
22826;SDS011;11580;52.562;13.418;2023-06-14T05:44:25;6.03;;;5.63;;
22826;SDS011;11580;52.562;13.418;2023-06-14T05:46:53;6.63;;;6.20;;
22826;SDS011;11580;52.562;13.418;2023-06-14T05:49:20;6.40;;;5.80;;
22826;SDS011;11580;52.562;13.418;2023-06-14T05:51:47;6.40;;;5.90;;
22826;SDS011;11580;52.562;13.418;2023-06-14T05:54:15;6.07;;;5.53;;
22826;SDS011;11580;52.562;13.418;2023-06-14T05:56:43;7.00;;;6.40;;
22826;SDS011;11580;52.562;13.418;2023-06-14T05:59:10;6.00;;;5.50;;
22826;SDS011;11580;52.562;13.418;2023-06-14T06:01:37;6.40;;;5.73;;
22826;SDS011;11580;52.562;13.418;2023-06-14T06:04:05;6.20;;;5.60;;
22826;SDS011;11580;52.562;13.418;2023-06-14T06:06:32;6.83;;;5.90;;
22826;SDS011;11580;52.562;13.418;2023-06-14T06:09:00;5.20;;;4.80;;
22826;SDS011;11580;52.562;13.418;2023-06-14T06:11:29;6.37;;;5.77;;
22826;SDS011;11580;52.562;13.418;2023-06-14T06:13:56;6.67;;;6.20;;
22826;SDS011;11580;52.562;13.418;2023-06-14T06:16:23;6.10;;;5.70;;
22826;SDS011;11580;52.562;13.418;2023-06-14T06:18:50;6.33;;;5.73;;
22826;SDS011;11580;52.562;13.418;2023-06-14T06:21:18;6.40;;;5.80;;
22826;SDS011;11580;52.562;13.418;2023-06-14T06:23:45;5.67;;;5.27;;
22826;SDS011;11580;52.562;13.418;2023-06-14T06:26:12;7.70;;;6.27;;
22826;SDS011;11580;52.562;13.418;2023-06-14T06:28:41;5.80;;;5.40;;
22826;SDS011;11580;52.562;13.418;2023-06-14T06:31:08;6.43;;;6.00;;
22826;SDS011;11580;52.562;13.418;2023-06-14T06:33:36;5.80;;;5.30;;
22826;SDS011;11580;52.562;13.418;2023-06-14T06:36:04;6.57;;;5.70;;
22826;SDS011;11580;52.562;13.418;2023-06-14T06:38:32;5.60;;;5.20;;
22826;SDS011;11580;52.562;13.418;2023-06-14T06:40:59;6.30;;;5.67;;
22826;SDS011;11580;52.562;13.418;2023-06-14T06:43:26;6.97;;;5.83;;
22826;SDS011;11580;52.562;13.418;2023-06-14T06:45:57;6.50;;;5.87;;
22826;SDS011;11580;52.562;13.418;2023-06-14T06:48:24;6.30;;;5.73;;
22826;SDS011;11580;52.562;13.418;2023-06-14T06:50:52;6.40;;;5.90;;
22826;SDS011;11580;52.562;13.418;2023-06-14T06:53:19;6.20;;;5.30;;
22826;SDS011;11580;52.562;13.418;2023-06-14T06:55:46;5.87;;;5.33;;
22826;SDS011;11580;52.562;13.418;2023-06-14T06:58:13;5.73;;;5.23;;
22826;SDS011;11580;52.562;13.418;2023-06-14T07:00:40;6.07;;;5.53;;
22826;SDS011;11580;52.562;13.418;2023-06-14T07:03:09;5.70;;;5.20;;
22826;SDS011;11580;52.562;13.418;2023-06-14T07:05:37;5.73;;;5.33;;
22826;SDS011;11580;52.562;13.418;2023-06-14T07:08:04;6.17;;;5.73;;
22826;SDS011;11580;52.562;13.418;2023-06-14T07:10:32;5.87;;;5.13;;
22826;SDS011;11580;52.562;13.418;2023-06-14T07:12:59;7.23;;;5.50;;
22826;SDS011;11580;52.562;13.418;2023-06-14T07:15:26;6.80;;;5.93;;
22826;SDS011;11580;52.562;13.418;2023-06-14T07:17:54;6.00;;;5.50;;
22826;SDS011;11580;52.562;13.418;2023-06-14T07:20:26;6.13;;;5.60;;
22826;SDS011;11580;52.562;13.418;2023-06-14T07:22:53;5.57;;;4.80;;
22826;SDS011;11580;52.562;13.418;2023-06-14T07:25:20;5.60;;;5.20;;
22826;SDS011;11580;52.562;13.418;2023-06-14T07:27:48;5.23;;;4.83;;
22826;SDS011;11580;52.562;13.418;2023-06-14T07:30:15;6.53;;;5.90;;
22826;SDS011;11580;52.562;13.418;2023-06-14T07:32:42;5.77;;;5.37;;
22826;SDS011;11580;52.562;13.418;2023-06-14T07:35:09;5.80;;;5.30;;
22826;SDS011;11580;52.562;13.418;2023-06-14T07:37:38;5.53;;;5.20;;
22826;SDS011;11580;52.562;13.418;2023-06-14T07:40:05;6.30;;;5.80;;
22826;SDS011;11580;52.562;13.418;2023-06-14T07:42:35;6.20;;;5.60;;
22826;SDS011;11580;52.562;13.418;2023-06-14T07:45:02;6.27;;;5.63;;
22826;SDS011;11580;52.562;13.418;2023-06-14T07:47:31;5.93;;;5.20;;
22826;SDS011;11580;52.562;13.418;2023-06-14T07:49:58;6.10;;;5.60;;
22826;SDS011;11580;52.562;13.418;2023-06-14T07:52:26;6.30;;;5.80;;
22826;SDS011;11580;52.562;13.418;2023-06-14T07:54:54;5.67;;;5.27;;
22826;SDS011;11580;52.562;13.418;2023-06-14T07:57:22;5.33;;;4.93;;
22826;SDS011;11580;52.562;13.418;2023-06-14T07:59:49;6.00;;;5.60;;
22826;SDS011;11580;52.562;13.418;2023-06-14T08:02:16;6.10;;;5.60;;
22826;SDS011;11580;52.562;13.418;2023-06-14T08:04:44;6.33;;;5.80;;
22826;SDS011;11580;52.562;13.418;2023-06-14T08:07:11;5.93;;;5.47;;
22826;SDS011;11580;52.562;13.418;2023-06-14T08:09:38;5.40;;;4.90;;
22826;SDS011;11580;52.562;13.418;2023-06-14T08:12:08;9.40;;;5.57;;
22826;SDS011;11580;52.562;13.418;2023-06-14T08:14:35;5.67;;;5.20;;
22826;SDS011;11580;52.562;13.418;2023-06-14T08:17:03;6.20;;;5.60;;
22826;SDS011;11580;52.562;13.418;2023-06-14T08:19:30;6.20;;;4.90;;
22826;SDS011;11580;52.562;13.418;2023-06-14T08:21:57;5.40;;;4.90;;
22826;SDS011;11580;52.562;13.418;2023-06-14T08:24:25;6.17;;;5.73;;
22826;SDS011;11580;52.562;13.418;2023-06-14T08:26:53;5.63;;;5.23;;
22826;SDS011;11580;52.562;13.418;2023-06-14T08:29:22;5.60;;;5.20;;
22826;SDS011;11580;52.562;13.418;2023-06-14T08:31:49;5.27;;;4.97;;
22826;SDS011;11580;52.562;13.418;2023-06-14T08:34:17;4.80;;;4.40;;
22826;SDS011;11580;52.562;13.418;2023-06-14T08:36:44;6.53;;;5.00;;
22826;SDS011;11580;52.562;13.418;2023-06-14T08:39:11;4.93;;;4.53;;
22826;SDS011;11580;52.562;13.418;2023-06-14T08:41:38;5.07;;;4.67;;
22826;SDS011;11580;52.562;13.418;2023-06-14T08:44:06;5.90;;;5.30;;
22826;SDS011;11580;52.562;13.418;2023-06-14T08:46:34;5.20;;;4.80;;
22826;SDS011;11580;52.562;13.418;2023-06-14T08:49:03;4.87;;;4.57;;
22826;SDS011;11580;52.562;13.418;2023-06-14T08:51:32;4.40;;;4.10;;
22826;SDS011;11580;52.562;13.418;2023-06-14T08:54:02;4.57;;;4.20;;
22826;SDS011;11580;52.562;13.418;2023-06-14T08:56:30;3.90;;;3.60;;
22826;SDS011;11580;52.562;13.418;2023-06-14T08:58:59;4.57;;;4.27;;
22826;SDS011;11580;52.562;13.418;2023-06-14T09:01:28;4.20;;;3.90;;
22826;SDS011;11580;52.562;13.418;2023-06-14T09:04:01;4.00;;;3.73;;
22826;SDS011;11580;52.562;13.418;2023-06-14T09:06:30;7.40;;;4.23;;
22826;SDS011;11580;52.562;13.418;2023-06-14T09:08:58;4.77;;;4.47;;
22826;SDS011;11580;52.562;13.418;2023-06-14T09:11:26;5.20;;;4.70;;
22826;SDS011;11580;52.562;13.418;2023-06-14T09:13:53;4.83;;;4.53;;
22826;SDS011;11580;52.562;13.418;2023-06-14T09:16:20;4.70;;;4.40;;
22826;SDS011;11580;52.562;13.418;2023-06-14T09:18:47;4.90;;;4.43;;
22826;SDS011;11580;52.562;13.418;2023-06-14T09:21:16;5.10;;;4.70;;
22826;SDS011;11580;52.562;13.418;2023-06-14T09:23:44;5.60;;;5.00;;
22826;SDS011;11580;52.562;13.418;2023-06-14T09:26:14;4.77;;;4.37;;
22826;SDS011;11580;52.562;13.418;2023-06-14T09:28:45;5.60;;;5.10;;
22826;SDS011;11580;52.562;13.418;2023-06-14T09:31:14;5.20;;;4.20;;
22826;SDS011;11580;52.562;13.418;2023-06-14T09:33:43;4.00;;;3.70;;
22826;SDS011;11580;52.562;13.418;2023-06-14T09:36:14;4.67;;;4.20;;
22826;SDS011;11580;52.562;13.418;2023-06-14T09:38:51;4.80;;;4.50;;
22826;SDS011;11580;52.562;13.418;2023-06-14T09:41:19;4.43;;;4.10;;
22826;SDS011;11580;52.562;13.418;2023-06-14T09:43:47;5.07;;;4.67;;
22826;SDS011;11580;52.562;13.418;2023-06-14T09:46:15;4.40;;;4.00;;
22826;SDS011;11580;52.562;13.418;2023-06-14T09:48:42;4.70;;;4.30;;
22826;SDS011;11580;52.562;13.418;2023-06-14T09:51:10;4.70;;;4.40;;
22826;SDS011;11580;52.562;13.418;2023-06-14T09:53:44;4.90;;;4.33;;
22826;SDS011;11580;52.562;13.418;2023-06-14T09:56:15;5.70;;;3.90;;
22826;SDS011;11580;52.562;13.418;2023-06-14T09:58:48;4.53;;;4.17;;
22826;SDS011;11580;52.562;13.418;2023-06-14T10:01:21;4.30;;;4.00;;
22826;SDS011;11580;52.562;13.418;2023-06-14T10:03:53;4.43;;;4.13;;
22826;SDS011;11580;52.562;13.418;2023-06-14T10:06:27;4.87;;;4.47;;
22826;SDS011;11580;52.562;13.418;2023-06-14T10:08:58;5.30;;;4.90;;
22826;SDS011;11580;52.562;13.418;2023-06-14T10:11:26;4.40;;;4.00;;
22826;SDS011;11580;52.562;13.418;2023-06-14T10:13:54;4.60;;;4.27;;
22826;SDS011;11580;52.562;13.418;2023-06-14T10:16:24;4.37;;;4.07;;
22826;SDS011;11580;52.562;13.418;2023-06-14T10:19:00;4.47;;;4.17;;
22826;SDS011;11580;52.562;13.418;2023-06-14T10:21:37;5.33;;;4.50;;
22826;SDS011;11580;52.562;13.418;2023-06-14T10:24:19;4.67;;;4.30;;
22826;SDS011;11580;52.562;13.418;2023-06-14T10:26:54;5.00;;;4.57;;
22826;SDS011;11580;52.562;13.418;2023-06-14T10:29:25;4.77;;;4.27;;
22826;SDS011;11580;52.562;13.418;2023-06-14T10:31:57;4.77;;;4.37;;
22826;SDS011;11580;52.562;13.418;2023-06-14T10:34:26;4.47;;;4.17;;
22826;SDS011;11580;52.562;13.418;2023-06-14T10:36:59;4.47;;;4.17;;
22826;SDS011;11580;52.562;13.418;2023-06-14T10:39:30;4.47;;;4.17;;
22826;SDS011;11580;52.562;13.418;2023-06-14T10:41:58;5.00;;;4.50;;
22826;SDS011;11580;52.562;13.418;2023-06-14T10:44:39;5.53;;;4.90;;
22826;SDS011;11580;52.562;13.418;2023-06-14T10:47:24;5.30;;;4.80;;
22826;SDS011;11580;52.562;13.418;2023-06-14T10:49:54;5.13;;;4.63;;
22826;SDS011;11580;52.562;13.418;2023-06-14T10:52:27;5.17;;;4.77;;
22826;SDS011;11580;52.562;13.418;2023-06-14T10:55:05;4.77;;;4.43;;
22826;SDS011;11580;52.562;13.418;2023-06-14T10:57:38;4.77;;;4.30;;
22826;SDS011;11580;52.562;13.418;2023-06-14T11:00:07;6.60;;;4.80;;
22826;SDS011;11580;52.562;13.418;2023-06-14T11:05:55;5.50;;;4.70;;
22826;SDS011;11580;52.562;13.418;2023-06-14T11:12:08;4.40;;;4.00;;
22826;SDS011;11580;52.562;13.418;2023-06-14T11:14:38;4.13;;;3.83;;
22826;SDS011;11580;52.562;13.418;2023-06-14T11:17:05;5.37;;;4.90;;
22826;SDS011;11580;52.562;13.418;2023-06-14T11:19:33;5.67;;;4.83;;
22826;SDS011;11580;52.562;13.418;2023-06-14T11:22:01;5.10;;;4.70;;
22826;SDS011;11580;52.562;13.418;2023-06-14T11:24:28;4.63;;;3.93;;
22826;SDS011;11580;52.562;13.418;2023-06-14T11:26:55;4.40;;;4.10;;
22826;SDS011;11580;52.562;13.418;2023-06-14T11:29:24;4.73;;;4.43;;
22826;SDS011;11580;52.562;13.418;2023-06-14T11:31:52;4.70;;;4.30;;
22826;SDS011;11580;52.562;13.418;2023-06-14T11:34:19;4.97;;;4.67;;
22826;SDS011;11580;52.562;13.418;2023-06-14T11:36:46;4.83;;;4.23;;
22826;SDS011;11580;52.562;13.418;2023-06-14T11:39:14;5.07;;;4.37;;
22826;SDS011;11580;52.562;13.418;2023-06-14T11:41:42;4.20;;;3.87;;
22826;SDS011;11580;52.562;13.418;2023-06-14T11:44:11;3.83;;;3.53;;
22826;SDS011;11580;52.562;13.418;2023-06-14T11:46:40;4.60;;;4.20;;
22826;SDS011;11580;52.562;13.418;2023-06-14T11:49:07;4.33;;;3.87;;
22826;SDS011;11580;52.562;13.418;2023-06-14T11:51:35;4.33;;;3.93;;
22826;SDS011;11580;52.562;13.418;2023-06-14T11:54:03;3.80;;;3.50;;
22826;SDS011;11580;52.562;13.418;2023-06-14T11:56:33;4.20;;;3.90;;
22826;SDS011;11580;52.562;13.418;2023-06-14T11:59:01;4.20;;;3.80;;
22826;SDS011;11580;52.562;13.418;2023-06-14T12:01:30;4.00;;;3.70;;
22826;SDS011;11580;52.562;13.418;2023-06-14T12:03:59;4.40;;;4.10;;
22826;SDS011;11580;52.562;13.418;2023-06-14T12:06:29;5.60;;;4.33;;
22826;SDS011;11580;52.562;13.418;2023-06-14T12:09:04;4.10;;;3.80;;
22826;SDS011;11580;52.562;13.418;2023-06-14T12:11:37;4.67;;;4.00;;
22826;SDS011;11580;52.562;13.418;2023-06-14T12:14:05;4.80;;;4.40;;
22826;SDS011;11580;52.562;13.418;2023-06-14T12:16:35;4.70;;;4.40;;
22826;SDS011;11580;52.562;13.418;2023-06-14T12:19:11;3.87;;;3.57;;
22826;SDS011;11580;52.562;13.418;2023-06-14T12:21:40;4.60;;;4.00;;
22826;SDS011;11580;52.562;13.418;2023-06-14T12:24:08;5.50;;;4.10;;
22826;SDS011;11580;52.562;13.418;2023-06-14T12:26:37;5.77;;;4.30;;
22826;SDS011;11580;52.562;13.418;2023-06-14T12:29:06;4.53;;;4.20;;
22826;SDS011;11580;52.562;13.418;2023-06-14T12:31:34;3.60;;;3.40;;
22826;SDS011;11580;52.562;13.418;2023-06-14T12:34:01;7.67;;;4.47;;
22826;SDS011;11580;52.562;13.418;2023-06-14T12:36:30;3.80;;;3.50;;
22826;SDS011;11580;52.562;13.418;2023-06-14T12:38:57;4.53;;;4.23;;
22826;SDS011;11580;52.562;13.418;2023-06-14T12:41:24;4.10;;;3.80;;
22826;SDS011;11580;52.562;13.418;2023-06-14T12:43:52;5.03;;;3.40;;
22826;SDS011;11580;52.562;13.418;2023-06-14T12:46:19;5.83;;;3.70;;
22826;SDS011;11580;52.562;13.418;2023-06-14T12:48:47;4.30;;;3.90;;
22826;SDS011;11580;52.562;13.418;2023-06-14T12:51:14;4.53;;;3.63;;
22826;SDS011;11580;52.562;13.418;2023-06-14T12:53:42;4.33;;;4.03;;
22826;SDS011;11580;52.562;13.418;2023-06-14T12:56:10;6.70;;;4.93;;
22826;SDS011;11580;52.562;13.418;2023-06-14T12:58:37;5.60;;;3.80;;
22826;SDS011;11580;52.562;13.418;2023-06-14T13:01:04;4.13;;;3.83;;
22826;SDS011;11580;52.562;13.418;2023-06-14T13:03:31;4.37;;;3.90;;
22826;SDS011;11580;52.562;13.418;2023-06-14T13:05:59;4.10;;;3.70;;
22826;SDS011;11580;52.562;13.418;2023-06-14T13:08:27;4.10;;;3.80;;
22826;SDS011;11580;52.562;13.418;2023-06-14T13:10:55;3.70;;;3.50;;
22826;SDS011;11580;52.562;13.418;2023-06-14T13:13:22;4.27;;;3.87;;
22826;SDS011;11580;52.562;13.418;2023-06-14T13:15:50;5.37;;;3.57;;
22826;SDS011;11580;52.562;13.418;2023-06-14T13:18:17;4.37;;;3.97;;
22826;SDS011;11580;52.562;13.418;2023-06-14T13:20:45;4.00;;;3.73;;
22826;SDS011;11580;52.562;13.418;2023-06-14T13:23:13;5.00;;;3.90;;
22826;SDS011;11580;52.562;13.418;2023-06-14T13:25:41;3.80;;;3.50;;
22826;SDS011;11580;52.562;13.418;2023-06-14T13:28:10;4.17;;;3.30;;
22826;SDS011;11580;52.562;13.418;2023-06-14T13:30:37;4.57;;;4.27;;
22826;SDS011;11580;52.562;13.418;2023-06-14T13:33:04;4.37;;;3.97;;
22826;SDS011;11580;52.562;13.418;2023-06-14T13:35:32;3.93;;;3.63;;
22826;SDS011;11580;52.562;13.418;2023-06-14T13:38:00;3.70;;;3.40;;
22826;SDS011;11580;52.562;13.418;2023-06-14T13:40:27;4.80;;;3.93;;
22826;SDS011;11580;52.562;13.418;2023-06-14T13:42:54;3.70;;;3.40;;
22826;SDS011;11580;52.562;13.418;2023-06-14T13:45:22;3.97;;;3.67;;
22826;SDS011;11580;52.562;13.418;2023-06-14T13:47:50;3.80;;;3.50;;
22826;SDS011;11580;52.562;13.418;2023-06-14T13:50:17;3.93;;;3.63;;
22826;SDS011;11580;52.562;13.418;2023-06-14T13:52:45;3.80;;;3.50;;
22826;SDS011;11580;52.562;13.418;2023-06-14T13:55:12;5.40;;;3.37;;
22826;SDS011;11580;52.562;13.418;2023-06-14T13:57:40;4.00;;;3.30;;
22826;SDS011;11580;52.562;13.418;2023-06-14T14:00:07;4.37;;;3.83;;
22826;SDS011;11580;52.562;13.418;2023-06-14T14:02:41;4.00;;;3.60;;
22826;SDS011;11580;52.562;13.418;2023-06-14T14:05:08;3.33;;;3.10;;
22826;SDS011;11580;52.562;13.418;2023-06-14T14:07:36;4.67;;;3.30;;
22826;SDS011;11580;52.562;13.418;2023-06-14T14:10:05;4.53;;;3.63;;
22826;SDS011;11580;52.562;13.418;2023-06-14T14:12:33;3.90;;;3.50;;
22826;SDS011;11580;52.562;13.418;2023-06-14T14:15:01;4.13;;;3.73;;
22826;SDS011;11580;52.562;13.418;2023-06-14T14:17:29;5.30;;;4.90;;
22826;SDS011;11580;52.562;13.418;2023-06-14T14:19:57;4.30;;;4.00;;
22826;SDS011;11580;52.562;13.418;2023-06-14T14:22:24;4.00;;;3.63;;
22826;SDS011;11580;52.562;13.418;2023-06-14T14:24:51;4.67;;;4.27;;
22826;SDS011;11580;52.562;13.418;2023-06-14T14:27:19;5.20;;;4.40;;
22826;SDS011;11580;52.562;13.418;2023-06-14T14:29:46;5.40;;;4.20;;
22826;SDS011;11580;52.562;13.418;2023-06-14T14:32:13;4.60;;;4.20;;
22826;SDS011;11580;52.562;13.418;2023-06-14T14:34:40;4.70;;;4.40;;
22826;SDS011;11580;52.562;13.418;2023-06-14T14:37:09;3.93;;;3.63;;
22826;SDS011;11580;52.562;13.418;2023-06-14T14:39:38;4.67;;;4.27;;
22826;SDS011;11580;52.562;13.418;2023-06-14T14:42:05;4.60;;;4.23;;
22826;SDS011;11580;52.562;13.418;2023-06-14T14:44:33;4.30;;;3.90;;
22826;SDS011;11580;52.562;13.418;2023-06-14T14:47:01;3.83;;;3.53;;
22826;SDS011;11580;52.562;13.418;2023-06-14T14:49:28;5.30;;;3.80;;